sensor_id;sensor_type;location;lat;lon;timestamp;P1;durP1;ratioP1;P2;durP2;ratioP2
15677;SDS011;7939;50.814;6.368;2023-04-30T00:00:22;18.52;;;12.55;;
15677;SDS011;7939;50.814;6.368;2023-04-30T00:02:49;15.15;;;11.60;;
15677;SDS011;7939;50.814;6.368;2023-04-30T00:05:15;17.35;;;12.63;;
15677;SDS011;7939;50.814;6.368;2023-04-30T00:07:43;16.98;;;12.70;;
15677;SDS011;7939;50.814;6.368;2023-04-30T00:10:10;18.77;;;13.32;;
15677;SDS011;7939;50.814;6.368;2023-04-30T00:12:37;15.70;;;12.52;;
15677;SDS011;7939;50.814;6.368;2023-04-30T00:15:04;18.45;;;12.93;;
15677;SDS011;7939;50.814;6.368;2023-04-30T00:17:32;18.75;;;12.60;;
15677;SDS011;7939;50.814;6.368;2023-04-30T00:19:58;17.00;;;12.50;;
15677;SDS011;7939;50.814;6.368;2023-04-30T00:22:25;19.88;;;11.77;;
15677;SDS011;7939;50.814;6.368;2023-04-30T00:24:53;16.40;;;12.25;;
15677;SDS011;7939;50.814;6.368;2023-04-30T00:27:20;16.35;;;12.18;;
15677;SDS011;7939;50.814;6.368;2023-04-30T00:29:46;18.77;;;13.23;;
15677;SDS011;7939;50.814;6.368;2023-04-30T00:32:13;17.02;;;12.40;;
15677;SDS011;7939;50.814;6.368;2023-04-30T00:34:40;15.13;;;11.80;;
15677;SDS011;7939;50.814;6.368;2023-04-30T00:37:06;16.55;;;11.98;;
15677;SDS011;7939;50.814;6.368;2023-04-30T00:39:33;18.05;;;13.10;;
15677;SDS011;7939;50.814;6.368;2023-04-30T00:42:01;16.55;;;12.43;;
15677;SDS011;7939;50.814;6.368;2023-04-30T00:44:27;15.02;;;11.18;;
15677;SDS011;7939;50.814;6.368;2023-04-30T00:46:54;16.23;;;11.77;;
15677;SDS011;7939;50.814;6.368;2023-04-30T00:49:21;16.83;;;12.30;;
15677;SDS011;7939;50.814;6.368;2023-04-30T00:51:48;20.15;;;13.65;;
15677;SDS011;7939;50.814;6.368;2023-04-30T00:54:15;16.30;;;11.95;;
15677;SDS011;7939;50.814;6.368;2023-04-30T00:56:43;20.73;;;13.93;;
15677;SDS011;7939;50.814;6.368;2023-04-30T00:59:12;19.25;;;13.02;;
15677;SDS011;7939;50.814;6.368;2023-04-30T01:01:39;19.45;;;13.00;;
15677;SDS011;7939;50.814;6.368;2023-04-30T01:04:07;15.55;;;12.07;;
15677;SDS011;7939;50.814;6.368;2023-04-30T01:06:33;15.85;;;12.52;;
15677;SDS011;7939;50.814;6.368;2023-04-30T01:09:00;16.08;;;12.00;;
15677;SDS011;7939;50.814;6.368;2023-04-30T01:11:30;15.05;;;11.68;;
15677;SDS011;7939;50.814;6.368;2023-04-30T01:14:06;16.70;;;12.32;;
15677;SDS011;7939;50.814;6.368;2023-04-30T01:16:39;14.43;;;11.60;;
15677;SDS011;7939;50.814;6.368;2023-04-30T01:19:16;20.50;;;12.73;;
15677;SDS011;7939;50.814;6.368;2023-04-30T01:21:54;17.73;;;13.35;;
15677;SDS011;7939;50.814;6.368;2023-04-30T01:24:31;17.92;;;13.27;;
15677;SDS011;7939;50.814;6.368;2023-04-30T01:27:17;16.45;;;12.70;;
15677;SDS011;7939;50.814;6.368;2023-04-30T01:29:56;17.70;;;12.50;;
15677;SDS011;7939;50.814;6.368;2023-04-30T01:32:23;15.88;;;12.27;;
15677;SDS011;7939;50.814;6.368;2023-04-30T01:34:50;18.10;;;13.07;;
15677;SDS011;7939;50.814;6.368;2023-04-30T01:37:19;17.13;;;12.20;;
15677;SDS011;7939;50.814;6.368;2023-04-30T01:39:54;15.88;;;12.20;;
15677;SDS011;7939;50.814;6.368;2023-04-30T01:42:29;16.85;;;12.23;;
15677;SDS011;7939;50.814;6.368;2023-04-30T01:45:11;19.90;;;13.73;;
15677;SDS011;7939;50.814;6.368;2023-04-30T01:47:47;16.55;;;13.63;;
15677;SDS011;7939;50.814;6.368;2023-04-30T01:50:19;14.65;;;11.65;;
15677;SDS011;7939;50.814;6.368;2023-04-30T01:52:51;17.63;;;12.50;;
15677;SDS011;7939;50.814;6.368;2023-04-30T01:55:19;19.40;;;13.65;;
15677;SDS011;7939;50.814;6.368;2023-04-30T01:57:51;17.73;;;12.50;;
15677;SDS011;7939;50.814;6.368;2023-04-30T02:00:23;16.08;;;12.27;;
15677;SDS011;7939;50.814;6.368;2023-04-30T02:02:51;18.58;;;12.88;;
15677;SDS011;7939;50.814;6.368;2023-04-30T02:05:18;16.85;;;12.38;;
15677;SDS011;7939;50.814;6.368;2023-04-30T02:07:47;17.67;;;12.55;;
15677;SDS011;7939;50.814;6.368;2023-04-30T02:10:16;16.83;;;11.85;;
15677;SDS011;7939;50.814;6.368;2023-04-30T02:12:43;18.73;;;12.55;;
15677;SDS011;7939;50.814;6.368;2023-04-30T02:15:10;17.08;;;12.20;;
15677;SDS011;7939;50.814;6.368;2023-04-30T02:17:38;18.55;;;12.27;;
15677;SDS011;7939;50.814;6.368;2023-04-30T02:20:05;17.65;;;12.77;;
15677;SDS011;7939;50.814;6.368;2023-04-30T02:22:33;18.80;;;12.82;;
15677;SDS011;7939;50.814;6.368;2023-04-30T02:24:59;17.90;;;12.88;;
15677;SDS011;7939;50.814;6.368;2023-04-30T02:27:28;17.38;;;13.10;;
15677;SDS011;7939;50.814;6.368;2023-04-30T02:29:56;18.13;;;12.05;;
15677;SDS011;7939;50.814;6.368;2023-04-30T02:32:23;18.95;;;13.07;;
15677;SDS011;7939;50.814;6.368;2023-04-30T02:34:51;19.20;;;13.18;;
15677;SDS011;7939;50.814;6.368;2023-04-30T02:37:17;17.13;;;13.10;;
15677;SDS011;7939;50.814;6.368;2023-04-30T02:39:44;17.33;;;12.65;;
15677;SDS011;7939;50.814;6.368;2023-04-30T02:42:11;20.00;;;13.77;;
15677;SDS011;7939;50.814;6.368;2023-04-30T02:44:37;15.88;;;11.52;;
15677;SDS011;7939;50.814;6.368;2023-04-30T02:47:04;19.60;;;13.90;;
15677;SDS011;7939;50.814;6.368;2023-04-30T02:49:31;15.73;;;11.05;;
15677;SDS011;7939;50.814;6.368;2023-04-30T02:51:59;15.80;;;12.23;;
15677;SDS011;7939;50.814;6.368;2023-04-30T02:54:26;17.67;;;12.98;;
15677;SDS011;7939;50.814;6.368;2023-04-30T02:56:52;18.65;;;12.38;;
15677;SDS011;7939;50.814;6.368;2023-04-30T02:59:19;13.75;;;11.77;;
15677;SDS011;7939;50.814;6.368;2023-04-30T03:01:46;18.17;;;13.15;;
15677;SDS011;7939;50.814;6.368;2023-04-30T03:04:12;16.38;;;11.90;;
15677;SDS011;7939;50.814;6.368;2023-04-30T03:06:39;18.55;;;11.77;;
15677;SDS011;7939;50.814;6.368;2023-04-30T03:09:07;16.85;;;12.10;;
15677;SDS011;7939;50.814;6.368;2023-04-30T03:11:34;16.25;;;12.48;;
15677;SDS011;7939;50.814;6.368;2023-04-30T03:14:01;15.15;;;10.77;;
15677;SDS011;7939;50.814;6.368;2023-04-30T03:16:28;17.35;;;11.88;;
15677;SDS011;7939;50.814;6.368;2023-04-30T03:18:57;16.35;;;11.48;;
15677;SDS011;7939;50.814;6.368;2023-04-30T03:21:23;16.95;;;11.88;;
15677;SDS011;7939;50.814;6.368;2023-04-30T03:23:50;15.77;;;11.15;;
15677;SDS011;7939;50.814;6.368;2023-04-30T03:26:18;14.80;;;11.50;;
15677;SDS011;7939;50.814;6.368;2023-04-30T03:28:46;16.23;;;11.43;;
15677;SDS011;7939;50.814;6.368;2023-04-30T03:31:13;17.67;;;12.05;;
15677;SDS011;7939;50.814;6.368;2023-04-30T03:33:40;15.65;;;11.95;;
15677;SDS011;7939;50.814;6.368;2023-04-30T03:36:06;17.23;;;11.95;;
15677;SDS011;7939;50.814;6.368;2023-04-30T03:38:33;18.38;;;11.43;;
15677;SDS011;7939;50.814;6.368;2023-04-30T03:41:00;16.50;;;11.70;;
15677;SDS011;7939;50.814;6.368;2023-04-30T03:43:29;18.95;;;12.32;;
15677;SDS011;7939;50.814;6.368;2023-04-30T03:45:56;16.63;;;11.20;;
15677;SDS011;7939;50.814;6.368;2023-04-30T03:48:22;17.00;;;12.43;;
15677;SDS011;7939;50.814;6.368;2023-04-30T03:50:49;18.40;;;12.75;;
15677;SDS011;7939;50.814;6.368;2023-04-30T03:53:16;15.43;;;10.82;;
15677;SDS011;7939;50.814;6.368;2023-04-30T03:55:42;17.63;;;12.50;;
15677;SDS011;7939;50.814;6.368;2023-04-30T03:58:09;14.85;;;11.13;;
15677;SDS011;7939;50.814;6.368;2023-04-30T04:00:37;16.23;;;11.60;;
15677;SDS011;7939;50.814;6.368;2023-04-30T04:03:05;16.80;;;11.50;;
15677;SDS011;7939;50.814;6.368;2023-04-30T04:05:32;18.42;;;12.00;;
15677;SDS011;7939;50.814;6.368;2023-04-30T04:07:58;16.60;;;11.52;;
15677;SDS011;7939;50.814;6.368;2023-04-30T04:10:25;18.23;;;12.43;;
15677;SDS011;7939;50.814;6.368;2023-04-30T04:12:51;18.25;;;13.05;;
15677;SDS011;7939;50.814;6.368;2023-04-30T04:15:18;17.92;;;12.63;;
15677;SDS011;7939;50.814;6.368;2023-04-30T04:17:46;15.27;;;12.07;;
15677;SDS011;7939;50.814;6.368;2023-04-30T04:20:13;16.45;;;12.23;;
15677;SDS011;7939;50.814;6.368;2023-04-30T04:22:40;19.25;;;12.90;;
15677;SDS011;7939;50.814;6.368;2023-04-30T04:25:06;16.67;;;12.48;;
15677;SDS011;7939;50.814;6.368;2023-04-30T04:27:33;19.00;;;13.20;;
15677;SDS011;7939;50.814;6.368;2023-04-30T04:30:00;17.23;;;12.27;;
15677;SDS011;7939;50.814;6.368;2023-04-30T04:32:27;20.10;;;14.15;;
15677;SDS011;7939;50.814;6.368;2023-04-30T04:34:56;19.58;;;13.05;;
15677;SDS011;7939;50.814;6.368;2023-04-30T04:37:22;18.70;;;12.32;;
15677;SDS011;7939;50.814;6.368;2023-04-30T04:39:49;19.40;;;12.95;;
15677;SDS011;7939;50.814;6.368;2023-04-30T04:42:16;19.48;;;14.00;;
15677;SDS011;7939;50.814;6.368;2023-04-30T04:44:44;21.67;;;15.00;;
15677;SDS011;7939;50.814;6.368;2023-04-30T04:47:11;17.83;;;13.25;;
15677;SDS011;7939;50.814;6.368;2023-04-30T04:49:37;19.38;;;12.30;;
15677;SDS011;7939;50.814;6.368;2023-04-30T04:52:05;20.13;;;12.52;;
15677;SDS011;7939;50.814;6.368;2023-04-30T04:54:32;18.63;;;12.40;;
15677;SDS011;7939;50.814;6.368;2023-04-30T04:56:59;18.00;;;12.70;;
15677;SDS011;7939;50.814;6.368;2023-04-30T04:59:27;15.93;;;10.63;;
15677;SDS011;7939;50.814;6.368;2023-04-30T05:01:53;17.77;;;12.20;;
15677;SDS011;7939;50.814;6.368;2023-04-30T05:04:20;19.23;;;12.95;;
15677;SDS011;7939;50.814;6.368;2023-04-30T05:06:47;19.52;;;12.75;;
15677;SDS011;7939;50.814;6.368;2023-04-30T05:09:15;17.05;;;12.32;;
15677;SDS011;7939;50.814;6.368;2023-04-30T05:11:42;19.65;;;13.82;;
15677;SDS011;7939;50.814;6.368;2023-04-30T05:14:10;18.67;;;12.55;;
15677;SDS011;7939;50.814;6.368;2023-04-30T05:16:37;20.70;;;13.10;;
15677;SDS011;7939;50.814;6.368;2023-04-30T05:19:04;14.43;;;11.75;;
15677;SDS011;7939;50.814;6.368;2023-04-30T05:21:31;15.77;;;11.45;;
15677;SDS011;7939;50.814;6.368;2023-04-30T05:23:57;20.45;;;12.43;;
15677;SDS011;7939;50.814;6.368;2023-04-30T05:26:26;17.08;;;11.88;;
15677;SDS011;7939;50.814;6.368;2023-04-30T05:28:52;18.88;;;12.32;;
15677;SDS011;7939;50.814;6.368;2023-04-30T05:31:19;16.92;;;12.63;;
15677;SDS011;7939;50.814;6.368;2023-04-30T05:33:46;22.48;;;12.75;;
15677;SDS011;7939;50.814;6.368;2023-04-30T05:36:12;16.52;;;12.55;;
15677;SDS011;7939;50.814;6.368;2023-04-30T05:38:39;18.60;;;13.45;;
15677;SDS011;7939;50.814;6.368;2023-04-30T05:41:06;19.35;;;14.45;;
15677;SDS011;7939;50.814;6.368;2023-04-30T05:43:36;18.73;;;12.77;;
15677;SDS011;7939;50.814;6.368;2023-04-30T05:46:03;18.75;;;13.65;;
15677;SDS011;7939;50.814;6.368;2023-04-30T05:48:30;21.02;;;14.80;;
15677;SDS011;7939;50.814;6.368;2023-04-30T05:50:57;23.27;;;15.93;;
15677;SDS011;7939;50.814;6.368;2023-04-30T05:53:23;28.40;;;17.95;;
15677;SDS011;7939;50.814;6.368;2023-04-30T05:55:50;23.00;;;16.00;;
15677;SDS011;7939;50.814;6.368;2023-04-30T05:58:16;23.48;;;16.58;;
15677;SDS011;7939;50.814;6.368;2023-04-30T06:00:44;24.17;;;15.25;;
15677;SDS011;7939;50.814;6.368;2023-04-30T06:03:14;25.25;;;16.63;;
15677;SDS011;7939;50.814;6.368;2023-04-30T06:05:40;20.83;;;14.25;;
15677;SDS011;7939;50.814;6.368;2023-04-30T06:08:08;23.63;;;16.65;;
15677;SDS011;7939;50.814;6.368;2023-04-30T06:10:34;22.27;;;15.98;;
15677;SDS011;7939;50.814;6.368;2023-04-30T06:13:02;22.83;;;16.77;;
15677;SDS011;7939;50.814;6.368;2023-04-30T06:15:28;24.92;;;16.45;;
15677;SDS011;7939;50.814;6.368;2023-04-30T06:17:57;24.05;;;14.90;;
15677;SDS011;7939;50.814;6.368;2023-04-30T06:20:23;19.23;;;14.25;;
15677;SDS011;7939;50.814;6.368;2023-04-30T06:22:51;16.75;;;12.63;;
15677;SDS011;7939;50.814;6.368;2023-04-30T06:25:17;19.98;;;14.93;;
15677;SDS011;7939;50.814;6.368;2023-04-30T06:27:44;25.77;;;15.77;;
15677;SDS011;7939;50.814;6.368;2023-04-30T06:30:11;20.38;;;13.50;;
15677;SDS011;7939;50.814;6.368;2023-04-30T06:32:38;22.40;;;14.90;;
15677;SDS011;7939;50.814;6.368;2023-04-30T06:35:07;24.70;;;16.00;;
15677;SDS011;7939;50.814;6.368;2023-04-30T06:37:34;21.35;;;14.25;;
15677;SDS011;7939;50.814;6.368;2023-04-30T06:40:01;19.48;;;13.82;;
15677;SDS011;7939;50.814;6.368;2023-04-30T06:42:28;23.80;;;16.35;;
15677;SDS011;7939;50.814;6.368;2023-04-30T06:44:58;26.90;;;17.13;;
15677;SDS011;7939;50.814;6.368;2023-04-30T06:47:25;21.13;;;14.73;;
15677;SDS011;7939;50.814;6.368;2023-04-30T06:49:51;22.25;;;16.55;;
15677;SDS011;7939;50.814;6.368;2023-04-30T06:52:20;20.95;;;15.35;;
15677;SDS011;7939;50.814;6.368;2023-04-30T06:54:46;27.48;;;18.10;;
15677;SDS011;7939;50.814;6.368;2023-04-30T06:57:13;24.20;;;17.50;;
15677;SDS011;7939;50.814;6.368;2023-04-30T06:59:39;28.85;;;18.35;;
15677;SDS011;7939;50.814;6.368;2023-04-30T07:02:06;25.60;;;18.65;;
15677;SDS011;7939;50.814;6.368;2023-04-30T07:04:33;24.75;;;17.38;;
15677;SDS011;7939;50.814;6.368;2023-04-30T07:07:00;30.23;;;18.60;;
15677;SDS011;7939;50.814;6.368;2023-04-30T07:09:28;26.05;;;17.85;;
15677;SDS011;7939;50.814;6.368;2023-04-30T07:11:55;26.33;;;17.52;;
15677;SDS011;7939;50.814;6.368;2023-04-30T07:14:22;26.88;;;18.02;;
15677;SDS011;7939;50.814;6.368;2023-04-30T07:16:51;28.35;;;19.75;;
15677;SDS011;7939;50.814;6.368;2023-04-30T07:19:18;31.13;;;20.17;;
15677;SDS011;7939;50.814;6.368;2023-04-30T07:21:44;31.02;;;20.15;;
15677;SDS011;7939;50.814;6.368;2023-04-30T07:24:11;31.27;;;20.52;;
15677;SDS011;7939;50.814;6.368;2023-04-30T07:26:39;35.10;;;22.60;;
15677;SDS011;7939;50.814;6.368;2023-04-30T07:29:06;30.60;;;21.50;;
15677;SDS011;7939;50.814;6.368;2023-04-30T07:31:33;31.20;;;20.27;;
15677;SDS011;7939;50.814;6.368;2023-04-30T07:33:59;32.38;;;20.92;;
15677;SDS011;7939;50.814;6.368;2023-04-30T07:36:26;26.20;;;18.33;;
15677;SDS011;7939;50.814;6.368;2023-04-30T07:38:52;25.52;;;18.10;;
15677;SDS011;7939;50.814;6.368;2023-04-30T07:41:19;34.13;;;22.17;;
15677;SDS011;7939;50.814;6.368;2023-04-30T07:43:47;31.13;;;20.85;;
15677;SDS011;7939;50.814;6.368;2023-04-30T07:46:13;29.67;;;20.00;;
15677;SDS011;7939;50.814;6.368;2023-04-30T07:48:40;30.20;;;20.30;;
15677;SDS011;7939;50.814;6.368;2023-04-30T07:51:06;31.00;;;21.77;;
15677;SDS011;7939;50.814;6.368;2023-04-30T07:53:33;28.05;;;17.95;;
15677;SDS011;7939;50.814;6.368;2023-04-30T07:56:00;26.02;;;18.40;;
15677;SDS011;7939;50.814;6.368;2023-04-30T07:58:26;32.15;;;22.17;;
15677;SDS011;7939;50.814;6.368;2023-04-30T08:00:54;36.17;;;22.85;;
15677;SDS011;7939;50.814;6.368;2023-04-30T08:03:21;31.58;;;21.50;;
15677;SDS011;7939;50.814;6.368;2023-04-30T08:05:48;30.25;;;20.52;;
15677;SDS011;7939;50.814;6.368;2023-04-30T08:08:14;29.52;;;20.33;;
15677;SDS011;7939;50.814;6.368;2023-04-30T08:10:41;30.55;;;21.00;;
15677;SDS011;7939;50.814;6.368;2023-04-30T08:13:08;31.42;;;19.02;;
15677;SDS011;7939;50.814;6.368;2023-04-30T08:15:35;33.92;;;22.50;;
15677;SDS011;7939;50.814;6.368;2023-04-30T08:18:03;29.70;;;19.75;;
15677;SDS011;7939;50.814;6.368;2023-04-30T08:20:30;34.97;;;22.52;;
15677;SDS011;7939;50.814;6.368;2023-04-30T08:22:57;33.40;;;22.08;;
15677;SDS011;7939;50.814;6.368;2023-04-30T08:25:24;35.85;;;22.58;;
15677;SDS011;7939;50.814;6.368;2023-04-30T08:27:50;26.27;;;19.05;;
15677;SDS011;7939;50.814;6.368;2023-04-30T08:30:17;27.23;;;18.40;;
15677;SDS011;7939;50.814;6.368;2023-04-30T08:32:47;25.95;;;17.10;;
15677;SDS011;7939;50.814;6.368;2023-04-30T08:35:15;24.77;;;18.17;;
15677;SDS011;7939;50.814;6.368;2023-04-30T08:37:42;26.50;;;18.52;;
15677;SDS011;7939;50.814;6.368;2023-04-30T08:40:09;23.52;;;16.85;;
15677;SDS011;7939;50.814;6.368;2023-04-30T08:42:39;25.92;;;17.80;;
15677;SDS011;7939;50.814;6.368;2023-04-30T08:45:11;29.42;;;19.25;;
15677;SDS011;7939;50.814;6.368;2023-04-30T08:47:38;24.35;;;16.10;;
15677;SDS011;7939;50.814;6.368;2023-04-30T08:50:06;29.35;;;17.00;;
15677;SDS011;7939;50.814;6.368;2023-04-30T08:52:34;23.20;;;16.75;;
15677;SDS011;7939;50.814;6.368;2023-04-30T08:55:05;23.77;;;16.30;;
15677;SDS011;7939;50.814;6.368;2023-04-30T08:57:33;19.60;;;15.15;;
15677;SDS011;7939;50.814;6.368;2023-04-30T08:59:59;20.88;;;15.88;;
15677;SDS011;7939;50.814;6.368;2023-04-30T09:02:26;23.42;;;15.85;;
15677;SDS011;7939;50.814;6.368;2023-04-30T09:04:52;21.40;;;14.45;;
15677;SDS011;7939;50.814;6.368;2023-04-30T09:07:19;21.85;;;14.35;;
15677;SDS011;7939;50.814;6.368;2023-04-30T09:09:52;17.98;;;13.38;;
15677;SDS011;7939;50.814;6.368;2023-04-30T09:12:19;18.33;;;14.40;;
15677;SDS011;7939;50.814;6.368;2023-04-30T09:14:59;16.88;;;12.30;;
15677;SDS011;7939;50.814;6.368;2023-04-30T09:17:27;20.80;;;12.65;;
15677;SDS011;7939;50.814;6.368;2023-04-30T09:19:55;15.43;;;12.57;;
15677;SDS011;7939;50.814;6.368;2023-04-30T09:22:32;16.85;;;12.45;;
15677;SDS011;7939;50.814;6.368;2023-04-30T09:25:00;18.58;;;13.35;;
15677;SDS011;7939;50.814;6.368;2023-04-30T09:27:26;17.40;;;12.48;;
15677;SDS011;7939;50.814;6.368;2023-04-30T09:29:53;16.48;;;12.43;;
15677;SDS011;7939;50.814;6.368;2023-04-30T09:32:20;19.33;;;12.73;;
15677;SDS011;7939;50.814;6.368;2023-04-30T09:34:47;15.65;;;11.05;;
15677;SDS011;7939;50.814;6.368;2023-04-30T09:37:14;14.75;;;11.18;;
15677;SDS011;7939;50.814;6.368;2023-04-30T09:39:50;13.75;;;10.00;;
15677;SDS011;7939;50.814;6.368;2023-04-30T09:42:20;14.23;;;10.90;;
15677;SDS011;7939;50.814;6.368;2023-04-30T09:44:47;13.95;;;10.25;;
15677;SDS011;7939;50.814;6.368;2023-04-30T09:47:14;13.93;;;9.88;;
15677;SDS011;7939;50.814;6.368;2023-04-30T09:49:43;16.20;;;10.93;;
15677;SDS011;7939;50.814;6.368;2023-04-30T09:52:13;14.93;;;10.45;;
15677;SDS011;7939;50.814;6.368;2023-04-30T09:54:41;13.57;;;9.60;;
15677;SDS011;7939;50.814;6.368;2023-04-30T09:57:09;13.75;;;9.95;;
15677;SDS011;7939;50.814;6.368;2023-04-30T09:59:40;11.35;;;9.23;;
15677;SDS011;7939;50.814;6.368;2023-04-30T10:02:09;11.18;;;8.77;;
15677;SDS011;7939;50.814;6.368;2023-04-30T10:04:41;12.18;;;8.75;;
15677;SDS011;7939;50.814;6.368;2023-04-30T10:07:09;7.75;;;6.10;;
15677;SDS011;7939;50.814;6.368;2023-04-30T10:09:40;8.48;;;6.43;;
15677;SDS011;7939;50.814;6.368;2023-04-30T10:12:13;10.50;;;7.53;;
15677;SDS011;7939;50.814;6.368;2023-04-30T10:14:44;14.38;;;8.85;;
15677;SDS011;7939;50.814;6.368;2023-04-30T10:17:16;9.25;;;7.55;;
15677;SDS011;7939;50.814;6.368;2023-04-30T10:19:45;9.02;;;6.38;;
15677;SDS011;7939;50.814;6.368;2023-04-30T10:22:14;8.38;;;5.72;;
15677;SDS011;7939;50.814;6.368;2023-04-30T10:24:41;8.70;;;7.47;;
15677;SDS011;7939;50.814;6.368;2023-04-30T10:27:09;10.27;;;7.13;;
15677;SDS011;7939;50.814;6.368;2023-04-30T10:29:36;7.63;;;6.30;;
15677;SDS011;7939;50.814;6.368;2023-04-30T10:32:04;10.05;;;6.90;;
15677;SDS011;7939;50.814;6.368;2023-04-30T10:34:36;8.70;;;5.60;;
15677;SDS011;7939;50.814;6.368;2023-04-30T10:37:12;10.23;;;6.82;;
15677;SDS011;7939;50.814;6.368;2023-04-30T10:39:46;9.25;;;7.25;;
15677;SDS011;7939;50.814;6.368;2023-04-30T10:42:13;8.77;;;6.70;;
15677;SDS011;7939;50.814;6.368;2023-04-30T10:44:40;10.23;;;8.43;;
15677;SDS011;7939;50.814;6.368;2023-04-30T10:47:08;14.60;;;8.63;;
15677;SDS011;7939;50.814;6.368;2023-04-30T10:49:35;10.90;;;7.53;;
15677;SDS011;7939;50.814;6.368;2023-04-30T10:52:03;11.80;;;8.48;;
15677;SDS011;7939;50.814;6.368;2023-04-30T10:54:31;8.00;;;6.15;;
15677;SDS011;7939;50.814;6.368;2023-04-30T10:57:09;9.35;;;7.00;;
15677;SDS011;7939;50.814;6.368;2023-04-30T10:59:40;8.05;;;5.18;;
15677;SDS011;7939;50.814;6.368;2023-04-30T11:02:11;13.13;;;8.25;;
15677;SDS011;7939;50.814;6.368;2023-04-30T11:07:35;10.38;;;7.78;;
15677;SDS011;7939;50.814;6.368;2023-04-30T11:10:02;9.82;;;7.40;;
15677;SDS011;7939;50.814;6.368;2023-04-30T11:12:32;11.23;;;7.07;;
15677;SDS011;7939;50.814;6.368;2023-04-30T11:14:59;13.38;;;8.05;;
15677;SDS011;7939;50.814;6.368;2023-04-30T11:17:39;10.63;;;8.80;;
15677;SDS011;7939;50.814;6.368;2023-04-30T11:20:06;10.45;;;8.85;;
15677;SDS011;7939;50.814;6.368;2023-04-30T11:22:38;10.40;;;8.48;;
15677;SDS011;7939;50.814;6.368;2023-04-30T11:25:05;13.30;;;9.52;;
15677;SDS011;7939;50.814;6.368;2023-04-30T11:27:34;10.60;;;9.30;;
15677;SDS011;7939;50.814;6.368;2023-04-30T11:30:03;10.43;;;8.70;;
15677;SDS011;7939;50.814;6.368;2023-04-30T11:32:36;11.18;;;9.98;;
15677;SDS011;7939;50.814;6.368;2023-04-30T11:35:06;11.35;;;8.68;;
15677;SDS011;7939;50.814;6.368;2023-04-30T11:37:33;13.52;;;9.45;;
15677;SDS011;7939;50.814;6.368;2023-04-30T11:40:02;12.88;;;9.73;;
15677;SDS011;7939;50.814;6.368;2023-04-30T11:42:31;11.73;;;9.23;;
15677;SDS011;7939;50.814;6.368;2023-04-30T11:45:06;9.73;;;7.80;;
15677;SDS011;7939;50.814;6.368;2023-04-30T11:47:39;10.15;;;7.55;;
15677;SDS011;7939;50.814;6.368;2023-04-30T11:50:07;10.98;;;8.57;;
15677;SDS011;7939;50.814;6.368;2023-04-30T11:52:34;9.90;;;7.57;;
15677;SDS011;7939;50.814;6.368;2023-04-30T11:55:04;9.95;;;7.97;;
15677;SDS011;7939;50.814;6.368;2023-04-30T11:57:38;10.50;;;7.43;;
15677;SDS011;7939;50.814;6.368;2023-04-30T12:00:12;8.23;;;6.85;;
15677;SDS011;7939;50.814;6.368;2023-04-30T12:02:42;9.43;;;7.63;;
15677;SDS011;7939;50.814;6.368;2023-04-30T12:05:11;8.80;;;6.95;;
15677;SDS011;7939;50.814;6.368;2023-04-30T12:07:43;8.70;;;5.95;;
15677;SDS011;7939;50.814;6.368;2023-04-30T12:10:11;9.18;;;6.28;;
15677;SDS011;7939;50.814;6.368;2023-04-30T12:12:38;6.60;;;5.45;;
15677;SDS011;7939;50.814;6.368;2023-04-30T12:15:11;6.25;;;4.97;;
15677;SDS011;7939;50.814;6.368;2023-04-30T12:17:39;7.40;;;5.15;;
15677;SDS011;7939;50.814;6.368;2023-04-30T12:20:08;4.97;;;4.28;;
15677;SDS011;7939;50.814;6.368;2023-04-30T12:22:36;5.60;;;4.53;;
15677;SDS011;7939;50.814;6.368;2023-04-30T12:25:07;8.95;;;4.65;;
15677;SDS011;7939;50.814;6.368;2023-04-30T12:27:38;5.28;;;4.38;;
15677;SDS011;7939;50.814;6.368;2023-04-30T12:30:06;8.68;;;4.88;;
15677;SDS011;7939;50.814;6.368;2023-04-30T12:32:37;5.13;;;4.00;;
15677;SDS011;7939;50.814;6.368;2023-04-30T12:35:05;5.63;;;4.47;;
15677;SDS011;7939;50.814;6.368;2023-04-30T12:37:34;5.28;;;4.25;;
15677;SDS011;7939;50.814;6.368;2023-04-30T12:40:01;4.75;;;4.07;;
15677;SDS011;7939;50.814;6.368;2023-04-30T12:42:31;7.90;;;4.95;;
15677;SDS011;7939;50.814;6.368;2023-04-30T12:44:59;4.72;;;4.07;;
15677;SDS011;7939;50.814;6.368;2023-04-30T12:47:25;5.32;;;3.60;;
15677;SDS011;7939;50.814;6.368;2023-04-30T12:49:52;4.40;;;3.50;;
15677;SDS011;7939;50.814;6.368;2023-04-30T12:52:22;3.83;;;3.42;;
15677;SDS011;7939;50.814;6.368;2023-04-30T12:54:52;4.93;;;3.00;;
15677;SDS011;7939;50.814;6.368;2023-04-30T12:57:20;4.40;;;3.80;;
15677;SDS011;7939;50.814;6.368;2023-04-30T13:02:32;3.40;;;3.00;;
15677;SDS011;7939;50.814;6.368;2023-04-30T13:04:59;5.57;;;3.13;;
15677;SDS011;7939;50.814;6.368;2023-04-30T13:07:26;4.45;;;3.03;;
15677;SDS011;7939;50.814;6.368;2023-04-30T13:10:04;3.65;;;2.67;;
15677;SDS011;7939;50.814;6.368;2023-04-30T13:12:31;3.40;;;3.10;;
15677;SDS011;7939;50.814;6.368;2023-04-30T13:14:58;3.60;;;3.13;;
15677;SDS011;7939;50.814;6.368;2023-04-30T13:17:24;5.78;;;3.60;;
15677;SDS011;7939;50.814;6.368;2023-04-30T13:19:51;4.80;;;3.67;;
15677;SDS011;7939;50.814;6.368;2023-04-30T13:22:18;5.40;;;3.60;;
15677;SDS011;7939;50.814;6.368;2023-04-30T13:24:44;4.63;;;3.15;;
15677;SDS011;7939;50.814;6.368;2023-04-30T13:27:13;3.42;;;2.90;;
15677;SDS011;7939;50.814;6.368;2023-04-30T13:29:39;3.47;;;2.67;;
15677;SDS011;7939;50.814;6.368;2023-04-30T13:32:06;7.05;;;3.92;;
15677;SDS011;7939;50.814;6.368;2023-04-30T13:34:34;3.60;;;3.03;;
15677;SDS011;7939;50.814;6.368;2023-04-30T13:37:01;3.60;;;2.50;;
15677;SDS011;7939;50.814;6.368;2023-04-30T13:39:27;2.72;;;2.47;;
15677;SDS011;7939;50.814;6.368;2023-04-30T13:41:54;3.78;;;2.72;;
15677;SDS011;7939;50.814;6.368;2023-04-30T13:44:22;2.83;;;2.20;;
15677;SDS011;7939;50.814;6.368;2023-04-30T13:46:49;2.97;;;2.63;;
15677;SDS011;7939;50.814;6.368;2023-04-30T13:49:16;3.42;;;2.63;;
15677;SDS011;7939;50.814;6.368;2023-04-30T13:51:43;3.08;;;2.30;;
15677;SDS011;7939;50.814;6.368;2023-04-30T13:54:09;2.33;;;2.13;;
15677;SDS011;7939;50.814;6.368;2023-04-30T13:56:36;3.42;;;2.50;;
15677;SDS011;7939;50.814;6.368;2023-04-30T13:59:03;2.10;;;1.90;;
15677;SDS011;7939;50.814;6.368;2023-04-30T14:01:31;3.67;;;2.50;;
15677;SDS011;7939;50.814;6.368;2023-04-30T14:03:58;2.17;;;2.03;;
15677;SDS011;7939;50.814;6.368;2023-04-30T14:06:26;2.47;;;2.28;;
15677;SDS011;7939;50.814;6.368;2023-04-30T14:08:53;2.83;;;2.53;;
15677;SDS011;7939;50.814;6.368;2023-04-30T14:11:20;4.15;;;2.15;;
15677;SDS011;7939;50.814;6.368;2023-04-30T14:13:46;3.15;;;2.40;;
15677;SDS011;7939;50.814;6.368;2023-04-30T14:16:13;2.65;;;2.17;;
15677;SDS011;7939;50.814;6.368;2023-04-30T14:18:41;3.28;;;1.90;;
15677;SDS011;7939;50.814;6.368;2023-04-30T14:21:08;2.22;;;1.75;;
15677;SDS011;7939;50.814;6.368;2023-04-30T14:23:34;1.90;;;1.63;;
15677;SDS011;7939;50.814;6.368;2023-04-30T14:26:03;1.73;;;1.60;;
15677;SDS011;7939;50.814;6.368;2023-04-30T14:28:30;3.17;;;1.63;;
15677;SDS011;7939;50.814;6.368;2023-04-30T14:30:57;1.65;;;1.55;;
15677;SDS011;7939;50.814;6.368;2023-04-30T14:33:23;2.38;;;1.85;;
15677;SDS011;7939;50.814;6.368;2023-04-30T14:35:51;1.67;;;1.55;;
15677;SDS011;7939;50.814;6.368;2023-04-30T14:38:18;2.30;;;1.55;;
15677;SDS011;7939;50.814;6.368;2023-04-30T14:40:45;2.38;;;1.30;;
15677;SDS011;7939;50.814;6.368;2023-04-30T14:43:12;1.98;;;1.40;;
15677;SDS011;7939;50.814;6.368;2023-04-30T14:45:39;1.60;;;1.48;;
15677;SDS011;7939;50.814;6.368;2023-04-30T14:48:05;1.67;;;1.58;;
15677;SDS011;7939;50.814;6.368;2023-04-30T14:50:32;1.67;;;1.58;;
15677;SDS011;7939;50.814;6.368;2023-04-30T14:53:01;3.28;;;1.55;;